Time;durP1;ratioP1;P1;durP2;ratioP2;P2;SDS_P1;SDS_P2;PMS_P1;PMS_P2;Temp;Humidity;BMP_temperature;BMP_pressure;BME280_temperature;BME280_humidity;BME280_pressure;Samples;Min_cycle;Max_cycle;Signal;HPM_P1;HPM_P2
2022/08/05 00:00:17;;;;;;;5.42;4.60;;;;;;;20.91;70.05;96554.40;1679781;84;20972;-83
2022/08/05 00:02:46;;;;;;;5.53;5.03;;;;;;;20.83;70.04;96556.15;1675951;84;21082;-82
2022/08/05 00:05:12;;;;;;;5.97;4.60;;;;;;;20.73;70.22;96548.06;1681420;84;21036;-81
2022/08/05 00:07:39;;;;;;;5.17;4.67;;;;;;;20.66;70.58;96557.48;1673901;85;21031;-83
2022/08/05 00:10:06;;;;;;;7.87;4.83;;;;;;;20.59;70.67;96557.34;1684908;84;21104;-82
2022/08/05 00:12:33;;;;;;;4.65;4.28;;;;;;;20.51;70.47;96557.24;1684277;84;21035;-82
2022/08/05 00:15:01;;;;;;;5.75;4.65;;;;;;;20.45;70.40;96557.38;1680722;84;21013;-82
2022/08/05 00:17:28;;;;;;;6.45;5.30;;;;;;;20.38;70.18;96561.48;1676537;85;20999;-83
2022/08/05 00:19:55;;;;;;;5.37;4.95;;;;;;;20.29;70.24;96561.58;1672030;84;21403;-82
2022/08/05 00:22:22;;;;;;;5.33;4.83;;;;;;;20.22;70.30;96565.70;1675041;85;20992;-82
2022/08/05 00:24:53;;;;;;;5.28;4.87;;;;;;;20.15;70.48;96566.35;1675512;85;21047;-83
2022/08/05 00:27:19;;;;;;;5.20;4.70;;;;;;;20.08;70.43;96563.08;1673531;85;21047;-83
2022/08/05 00:29:45;;;;;;;5.20;4.75;;;;;;;20.02;70.57;96566.67;1674478;84;21451;-83
2022/08/05 00:32:11;;;;;;;5.12;4.55;;;;;;;19.97;70.80;96565.23;1676236;85;20999;-82
2022/08/05 00:34:42;;;;;;;6.37;5.50;;;;;;;19.94;71.15;96563.87;1654615;85;21970;-82
2022/08/05 00:37:10;;;;;;;5.22;4.65;;;;;;;19.91;71.35;96560.92;1677002;84;20988;-82
2022/08/05 00:39:41;;;;;;;5.33;4.78;;;;;;;19.88;71.44;96556.92;1684801;84;21063;-82
2022/08/05 00:42:06;;;;;;;5.40;4.92;;;;;;;19.85;71.44;96553.94;1683159;84;21023;-82
2022/08/05 00:44:32;;;;;;;5.15;4.65;;;;;;;19.81;71.48;96557.56;1672346;85;21075;-82
2022/08/05 00:46:59;;;;;;;5.15;4.72;;;;;;;19.77;71.35;96556.44;1683880;84;21420;-82
2022/08/05 00:49:27;;;;;;;6.60;4.60;;;;;;;19.74;71.17;96555.08;1683466;84;21003;-82
2022/08/05 00:51:54;;;;;;;5.62;5.12;;;;;;;19.71;70.90;96554.23;1685010;84;21565;-82
2022/08/05 00:54:21;;;;;;;4.60;4.20;;;;;;;19.67;71.00;96550.45;1680107;84;21071;-82
2022/08/05 00:56:48;;;;;;;5.40;4.97;;;;;;;19.63;70.77;96554.59;1681708;84;21010;-82
2022/08/05 00:59:15;;;;;;;5.33;4.83;;;;;;;19.60;70.81;96548.48;1682190;84;21062;-82
2022/08/05 01:01:42;;;;;;;5.47;4.97;;;;;;;19.55;71.00;96547.59;1684636;84;21078;-82
2022/08/05 01:04:08;;;;;;;7.10;5.00;;;;;;;19.49;71.03;96546.64;1686191;84;21026;-82
2022/08/05 01:06:34;;;;;;;5.92;4.95;;;;;;;19.44;71.28;96547.87;1684036;84;20948;-82
2022/08/05 01:09:01;;;;;;;7.10;4.67;;;;;;;19.40;71.20;96547.54;1684762;84;20999;-82
2022/08/05 01:11:33;;;;;;;5.10;4.70;;;;;;;19.38;71.28;96548.30;1688877;84;21002;-82
2022/08/05 01:14:21;;;;;;;5.15;4.75;;;;;;;19.36;71.39;96537.19;1674840;85;21039;-82
2022/08/05 01:17:05;;;;;;;5.80;5.12;;;;;;;19.33;71.59;96540.78;1675101;85;21024;-82
2022/08/05 01:19:48;;;;;;;5.12;4.62;;;;;;;19.30;71.71;96534.15;1654026;85;20995;-82
2022/08/05 01:22:32;;;;;;;5.50;5.00;;;;;;;19.24;71.78;96531.14;1676212;84;21045;-82
2022/08/05 01:25:42;;;;;;;5.55;5.03;;;;;;;19.18;71.89;96532.84;1672872;84;21036;-82
2022/08/05 01:28:35;;;;;;;6.37;4.95;;;;;;;19.16;72.07;96534.92;1672523;84;20953;-82
2022/08/05 01:31:19;;;;;;;4.83;4.42;;;;;;;19.12;72.14;96533.78;1685043;84;21042;-82
2022/08/05 01:34:02;;;;;;;5.10;4.47;;;;;;;19.12;72.23;96531.67;1682892;84;20995;-81
2022/08/05 01:36:35;;;;;;;4.85;4.45;;;;;;;19.09;72.17;96527.67;1684822;84;21375;-81
2022/08/05 01:39:01;;;;;;;5.30;4.80;;;;;;;19.08;72.08;96525.27;1683227;84;21039;-81
2022/08/05 01:41:32;;;;;;;5.75;5.22;;;;;;;19.04;71.96;96526.26;1683339;84;21049;-81
2022/08/05 01:43:58;;;;;;;6.63;4.87;;;;;;;19.02;72.11;96523.03;1682674;84;20956;-81
2022/08/05 01:46:24;;;;;;;5.03;4.67;;;;;;;19.00;72.21;96526.41;1680261;84;21023;-81
2022/08/05 01:48:50;;;;;;;4.97;4.58;;;;;;;18.98;72.24;96519.78;1685371;84;21072;-81
2022/08/05 01:51:17;;;;;;;4.55;4.25;;;;;;;18.98;72.40;96523.73;1656656;85;21013;-81
2022/08/05 01:53:43;;;;;;;5.03;4.62;;;;;;;18.97;72.05;96518.98;1662281;84;20977;-81
2022/08/05 01:56:09;;;;;;;5.25;4.20;;;;;;;18.95;71.95;96521.05;1700475;83;21477;-81
2022/08/05 01:58:34;;;;;;;5.17;4.50;;;;;;;18.95;71.87;96521.05;1700316;83;20944;-81
2022/08/05 02:01:00;;;;;;;4.65;4.25;;;;;;;18.95;72.04;96524.20;1702042;83;21039;-82
2022/08/05 02:03:34;;;;;;;4.58;4.17;;;;;;;18.93;72.20;96517.05;1698406;83;21033;-81
2022/08/05 02:06:02;;;;;;;5.37;4.28;;;;;;;18.91;72.44;96514.64;1704945;83;21093;-82
2022/08/05 02:08:27;;;;;;;5.47;4.67;;;;;;;18.89;72.30;96511.45;1698435;83;21026;-82
2022/08/05 02:10:58;;;;;;;4.80;4.22;;;;;;;18.87;72.26;96513.00;1704630;83;20999;-82
2022/08/05 02:13:31;;;;;;;5.10;4.05;;;;;;;18.87;72.26;96513.48;1703085;83;21417;-81
2022/08/05 02:16:19;;;;;;;4.70;4.25;;;;;;;18.88;72.44;96513.28;1705281;83;20971;-81
2022/08/05 02:19:02;;;;;;;4.62;4.22;;;;;;;18.87;72.37;96509.05;1703372;83;20980;-81
2022/08/05 02:21:32;;;;;;;4.70;4.28;;;;;;;18.86;71.95;96510.05;1700261;83;21367;-82
2022/08/05 02:24:02;;;;;;;4.85;4.00;;;;;;;18.86;71.65;96510.56;1699893;83;20947;-81
2022/08/05 02:26:36;;;;;;;5.05;4.65;;;;;;;18.84;71.50;96511.31;1698331;83;21102;-81
2022/08/05 02:29:02;;;;;;;4.90;4.40;;;;;;;18.83;71.46;96507.88;1700698;83;21012;-81
2022/08/05 02:31:29;;;;;;;4.67;4.28;;;;;;;18.81;71.28;96504.69;1700304;83;21070;-81
2022/08/05 02:33:58;;;;;;;4.45;4.05;;;;;;;18.80;71.17;96507.55;1701593;83;20990;-82
2022/08/05 02:36:25;;;;;;;4.85;4.10;;;;;;;18.77;71.12;96504.87;1674047;83;21397;-81
2022/08/05 02:38:52;;;;;;;5.08;4.67;;;;;;;18.77;71.26;96502.75;1669281;84;20979;-81
2022/08/05 02:41:19;;;;;;;4.17;3.77;;;;;;;18.78;71.11;96505.67;1704149;83;20959;-81
2022/08/05 02:43:46;;;;;;;4.87;4.47;;;;;;;18.76;71.01;96498.52;1673148;83;21012;-82
2022/08/05 02:46:14;;;;;;;4.95;4.45;;;;;;;18.76;71.02;96497.20;1701308;83;20959;-82
2022/08/05 02:48:40;;;;;;;4.70;4.30;;;;;;;18.76;71.02;96507.22;1701605;83;21003;-81
2022/08/05 02:51:06;;;;;;;4.47;4.08;;;;;;;18.75;71.40;96502.19;1667224;85;21135;-82
2022/08/05 02:53:32;;;;;;;4.60;4.20;;;;;;;18.72;71.36;96495.55;1617178;87;21007;-82
2022/08/05 02:55:58;;;;;;;6.37;4.60;;;;;;;18.70;71.62;96498.91;1611484;87;20972;-82
2022/08/05 02:58:24;;;;;;;4.95;4.37;;;;;;;18.69;71.67;96497.82;1669174;84;20984;-82
2022/08/05 03:00:53;;;;;;;5.10;4.60;;;;;;;18.68;71.17;96500.17;1693910;84;20997;-81
2022/08/05 03:03:19;;;;;;;4.58;4.17;;;;;;;18.65;70.86;96496.17;1689750;83;21000;-82
2022/08/05 03:05:46;;;;;;;5.70;4.50;;;;;;;18.64;70.86;96493.25;1704587;83;21397;-82
2022/08/05 03:08:12;;;;;;;5.90;4.58;;;;;;;18.62;70.79;96493.97;1693434;84;21355;-82
2022/08/05 03:10:37;;;;;;;4.47;3.95;;;;;;;18.63;70.79;96496.09;1691395;84;20981;-82
2022/08/05 03:13:13;;;;;;;5.15;4.30;;;;;;;18.63;70.89;96494.28;1704217;83;21008;-82
2022/08/05 03:15:42;;;;;;;4.40;4.10;;;;;;;18.63;71.00;96495.60;1702293;83;21366;-82
2022/08/05 03:18:07;;;;;;;4.05;3.70;;;;;;;18.64;71.03;96489.82;1700900;84;22096;-82
2022/08/05 03:20:33;;;;;;;4.22;3.83;;;;;;;18.66;70.68;96485.92;1699997;83;20971;-82
2022/08/05 03:22:59;;;;;;;4.35;4.03;;;;;;;18.67;70.64;96485.41;1675209;84;21031;-81
2022/08/05 03:25:25;;;;;;;4.30;3.90;;;;;;;18.68;70.82;96483.06;1699880;84;21424;-82
2022/08/05 03:27:51;;;;;;;5.55;4.22;;;;;;;18.69;70.84;96485.98;1701277;83;21009;-82
2022/08/05 03:30:16;;;;;;;5.83;4.00;;;;;;;18.68;71.03;96485.17;1699547;83;20954;-81
2022/08/05 03:32:42;;;;;;;4.60;4.20;;;;;;;18.68;71.19;96481.75;1699368;83;20959;-81
2022/08/05 03:35:08;;;;;;;5.10;4.17;;;;;;;18.67;71.00;96481.46;1699024;83;21436;-81
2022/08/05 03:37:34;;;;;;;4.15;3.85;;;;;;;18.69;70.99;96480.20;1702218;83;20940;-81
2022/08/05 03:40:01;;;;;;;5.50;3.60;;;;;;;18.74;70.71;96474.27;1701726;84;21031;-81
2022/08/05 03:42:28;;;;;;;4.65;3.98;;;;;;;18.78;70.05;96478.03;1701994;83;21068;-81
2022/08/05 03:44:54;;;;;;;5.97;3.92;;;;;;;18.84;70.42;96475.78;1703108;83;21436;-81
2022/08/05 03:47:19;;;;;;;4.45;3.98;;;;;;;18.88;70.02;96477.73;1700523;83;21026;-81
2022/08/05 03:49:45;;;;;;;4.47;4.08;;;;;;;18.93;69.83;96480.98;1703254;84;20986;-81
2022/08/05 03:52:14;;;;;;;4.58;4.17;;;;;;;18.97;69.77;96476.05;1698957;84;20995;-81
2022/08/05 03:54:53;;;;;;;4.45;4.05;;;;;;;19.01;69.61;96483.24;1689810;82;21177;-81
2022/08/05 03:57:23;;;;;;;4.67;4.28;;;;;;;19.03;69.79;96487.76;1692747;83;20968;-81
2022/08/05 03:59:54;;;;;;;4.62;3.80;;;;;;;19.04;69.96;96485.44;1693157;83;21300;-81
2022/08/05 04:02:21;;;;;;;4.37;4.00;;;;;;;19.07;70.08;96486.80;1693317;83;20983;-81
2022/08/05 04:04:46;;;;;;;4.87;3.90;;;;;;;19.08;70.00;96474.72;1693163;83;21012;-81
2022/08/05 04:07:12;;;;;;;3.85;3.55;;;;;;;19.10;69.99;96477.91;1694839;83;20956;-82
2022/08/05 04:09:38;;;;;;;4.08;3.72;;;;;;;19.13;69.99;96481.91;1692311;83;20999;-82
2022/08/05 04:12:04;;;;;;;4.00;3.50;;;;;;;19.13;69.85;96482.71;1616571;85;21401;-81
2022/08/05 04:14:30;;;;;;;3.92;3.60;;;;;;;19.15;70.05;96490.38;1692793;83;21438;-81
2022/08/05 04:16:55;;;;;;;3.98;3.67;;;;;;;19.14;70.09;96488.78;1693257;83;20966;-81
2022/08/05 04:19:21;;;;;;;4.08;3.77;;;;;;;19.12;70.74;96489.02;1694984;83;21013;-81
2022/08/05 04:21:47;;;;;;;4.22;3.83;;;;;;;19.11;71.29;96486.61;1688053;84;20975;-80
2022/08/05 04:24:13;;;;;;;3.75;3.45;;;;;;;19.11;71.31;96487.93;1684567;84;20991;-81
2022/08/05 04:26:39;;;;;;;5.50;3.70;;;;;;;19.09;71.26;96484.22;1691644;84;21055;-81
2022/08/05 04:29:05;;;;;;;5.00;4.50;;;;;;;19.10;71.46;96483.70;1682087;84;22370;-81
2022/08/05 04:31:31;;;;;;;4.47;3.90;;;;;;;19.09;71.48;96488.16;1693761;84;21047;-81
2022/08/05 04:33:56;;;;;;;4.45;4.05;;;;;;;19.07;71.43;96491.55;1689302;83;21010;-81
2022/08/05 04:36:22;;;;;;;3.90;3.52;;;;;;;19.03;71.46;96478.55;1693505;83;21075;-81
2022/08/05 04:38:48;;;;;;;4.10;3.80;;;;;;;19.00;71.39;96480.33;1688418;83;21032;-81
2022/08/05 04:41:14;;;;;;;4.25;3.85;;;;;;;18.98;71.40;96478.45;1688102;83;20952;-81
2022/08/05 04:43:39;;;;;;;4.20;3.80;;;;;;;18.99;71.34;96483.20;1688644;83;21383;-81
2022/08/05 04:46:05;;;;;;;4.33;3.67;;;;;;;18.99;71.55;96480.56;1690196;83;20980;-81
2022/08/05 04:48:31;;;;;;;4.28;3.87;;;;;;;19.00;71.75;96480.84;1692262;84;20972;-81
2022/08/05 04:50:57;;;;;;;3.98;3.67;;;;;;;19.00;71.86;96478.21;1691956;84;21024;-81
2022/08/05 04:53:22;;;;;;;3.90;3.60;;;;;;;18.99;72.08;96483.20;1696031;83;21060;-81
2022/08/05 04:55:49;;;;;;;3.90;3.60;;;;;;;18.98;72.21;96482.39;1704059;82;21034;-81
2022/08/05 04:58:17;;;;;;;3.90;3.55;;;;;;;18.98;72.23;96482.91;1699560;83;21365;-81
2022/08/05 05:00:43;;;;;;;4.05;3.75;;;;;;;19.01;72.45;96479.81;1692609;83;20981;-81
2022/08/05 05:03:09;;;;;;;3.80;3.50;;;;;;;19.03;72.47;96483.81;1691912;83;21378;-81
2022/08/05 05:05:35;;;;;;;4.83;4.37;;;;;;;19.05;72.75;96484.41;1696230;83;21006;-81
2022/08/05 05:08:04;;;;;;;3.60;3.30;;;;;;;19.06;72.81;96475.98;1693703;83;20997;-82
2022/08/05 05:10:32;;;;;;;3.77;3.47;;;;;;;19.07;73.11;96481.02;1659620;85;21059;-82
2022/08/05 05:12:57;;;;;;;4.95;3.40;;;;;;;19.07;73.37;96479.70;1640452;86;21039;-82
2022/08/05 05:15:26;;;;;;;4.47;3.85;;;;;;;19.09;73.35;96478.95;1643275;86;21476;-83
2022/08/05 05:17:52;;;;;;;3.35;3.05;;;;;;;19.13;73.25;96481.39;1641652;86;21074;-82
2022/08/05 05:20:18;;;;;;;5.65;4.12;;;;;;;19.19;73.12;96479.65;1644330;86;21050;-82
2022/08/05 05:22:43;;;;;;;4.60;3.27;;;;;;;19.25;73.10;96483.20;1634858;86;21051;-82
2022/08/05 05:25:09;;;;;;;4.78;3.50;;;;;;;19.30;73.04;96472.76;1641565;86;21138;-82
2022/08/05 05:27:35;;;;;;;4.67;3.55;;;;;;;19.36;73.22;96477.91;1634277;86;21006;-82
2022/08/05 05:30:01;;;;;;;4.87;3.70;;;;;;;19.40;73.18;96482.19;1697257;83;21382;-82
2022/08/05 05:32:27;;;;;;;4.55;3.30;;;;;;;19.42;73.01;96482.75;1692322;83;21018;-82
2022/08/05 05:34:53;;;;;;;3.80;3.50;;;;;;;19.45;73.17;96484.91;1686459;83;21038;-82
2022/08/05 05:37:18;;;;;;;3.83;3.40;;;;;;;19.49;73.34;96488.14;1696642;83;21039;-82
2022/08/05 05:39:44;;;;;;;3.52;3.30;;;;;;;19.55;73.54;96490.92;1685489;83;21425;-82
2022/08/05 05:42:10;;;;;;;5.42;3.45;;;;;;;19.59;73.23;96487.58;1703539;83;21430;-82
2022/08/05 05:44:35;;;;;;;3.52;3.02;;;;;;;19.65;73.09;96485.30;1697875;83;21026;-82
2022/08/05 05:47:01;;;;;;;3.62;3.25;;;;;;;19.70;73.23;96487.25;1697412;83;21076;-82
2022/08/05 05:49:27;;;;;;;3.40;3.10;;;;;;;19.75;73.51;96486.02;1698747;82;20984;-82
2022/08/05 05:51:53;;;;;;;3.42;3.12;;;;;;;19.81;73.60;96490.33;1691689;83;21437;-82
2022/08/05 05:54:19;;;;;;;4.35;3.30;;;;;;;19.84;73.40;96495.13;1689313;83;21019;-81
2022/08/05 05:56:46;;;;;;;3.40;3.15;;;;;;;19.86;73.39;96496.23;1640678;86;21035;-81
2022/08/05 05:59:11;;;;;;;4.00;3.60;;;;;;;19.87;73.52;96493.88;1655759;85;21018;-80
2022/08/05 06:01:39;;;;;;;3.40;3.10;;;;;;;19.88;73.57;96496.27;1657443;85;21512;-80
2022/08/05 06:04:07;;;;;;;3.42;3.08;;;;;;;19.90;73.99;96500.79;1658127;85;21409;-81
2022/08/05 06:06:34;;;;;;;3.15;2.95;;;;;;;19.93;74.13;96496.35;1656579;86;21584;-81
2022/08/05 06:09:00;;;;;;;3.05;2.80;;;;;;;19.96;74.05;96496.39;1654457;85;21035;-81
2022/08/05 06:11:25;;;;;;;3.85;3.30;;;;;;;19.99;74.28;96497.23;1661158;85;21035;-81
2022/08/05 06:13:51;;;;;;;3.12;2.67;;;;;;;20.02;74.25;96494.14;1651910;85;20961;-83
2022/08/05 06:16:17;;;;;;;3.52;3.20;;;;;;;20.09;74.51;96499.53;1691619;83;21027;-82
2022/08/05 06:18:42;;;;;;;3.42;2.72;;;;;;;20.14;74.70;96497.48;1697561;83;22008;-81
2022/08/05 06:21:08;;;;;;;3.77;2.77;;;;;;;20.19;75.01;96487.55;1696293;83;20991;-81
2022/08/05 06:23:34;;;;;;;3.27;2.98;;;;;;;20.25;74.85;96486.59;1703276;83;21003;-82
2022/08/05 06:25:59;;;;;;;3.50;3.20;;;;;;;20.32;74.92;96495.13;1692201;83;21008;-82
2022/08/05 06:28:25;;;;;;;4.08;3.60;;;;;;;20.38;75.17;96492.34;1696301;83;21019;-82
2022/08/05 06:30:51;;;;;;;4.60;4.05;;;;;;;20.50;75.24;96496.75;1689022;83;21493;-82
2022/08/05 06:33:17;;;;;;;3.60;3.30;;;;;;;20.50;75.24;96496.75;1688774;83;21035;-82
2022/08/05 06:35:42;;;;;;;3.52;3.22;;;;;;;20.55;75.65;96497.64;1688956;83;21418;-82
2022/08/05 06:38:08;;;;;;;4.25;3.45;;;;;;;20.62;75.75;96497.46;1691991;83;21452;-81
2022/08/05 06:40:34;;;;;;;3.62;3.30;;;;;;;20.70;74.70;96497.59;1689949;83;20984;-82
2022/08/05 06:42:59;;;;;;;3.40;3.10;;;;;;;20.78;75.10;96499.28;1671231;84;21074;-82
2022/08/05 06:45:27;;;;;;;3.95;3.65;;;;;;;20.90;75.05;96501.82;1700290;83;21027;-82
2022/08/05 06:47:52;;;;;;;3.35;3.00;;;;;;;20.97;74.65;96507.19;1697491;83;20971;-82
2022/08/05 06:50:18;;;;;;;4.17;3.50;;;;;;;21.07;74.56;96500.45;1695276;83;20955;-82
2022/08/05 06:52:44;;;;;;;3.58;3.27;;;;;;;21.11;74.52;96484.38;1690647;83;21386;-82
2022/08/05 06:55:09;;;;;;;3.80;3.40;;;;;;;21.24;73.10;96496.74;1694502;83;21032;-82
2022/08/05 06:57:36;;;;;;;3.92;3.40;;;;;;;21.33;73.05;96491.04;1686242;84;21103;-83
2022/08/05 07:00:03;;;;;;;3.75;3.20;;;;;;;21.42;72.52;96492.18;1686599;83;21062;-83
2022/08/05 07:02:29;;;;;;;3.72;3.37;;;;;;;21.53;72.04;96497.87;1687619;84;21406;-83
2022/08/05 07:04:55;;;;;;;5.95;3.10;;;;;;;21.61;70.65;96493.44;1689702;84;20995;-83
2022/08/05 07:07:20;;;;;;;3.50;3.20;;;;;;;21.68;70.79;96498.03;1691022;84;21115;-83
2022/08/05 07:09:46;;;;;;;3.75;3.45;;;;;;;21.75;69.85;96497.30;1660521;85;21426;-82
2022/08/05 07:16:48;;;;;;;3.80;3.50;;;;;;;21.86;68.52;96487.63;1688868;83;20988;-82
2022/08/05 07:17:24;;;;;;;3.17;2.77;;;;;;;22.05;68.89;96485.44;1690623;83;21043;-82
2022/08/05 07:19:51;;;;;;;3.72;3.37;;;;;;;22.18;67.49;96497.46;1681607;84;20955;-82
2022/08/05 07:22:20;;;;;;;3.92;3.42;;;;;;;22.27;67.61;96494.61;1684545;83;21367;-82
2022/08/05 07:24:44;;;;;;;3.42;3.12;;;;;;;22.34;66.02;96494.69;1686521;83;21016;-82
2022/08/05 07:27:10;;;;;;;3.30;3.00;;;;;;;22.47;65.58;96494.78;1686297;84;20957;-82
2022/08/05 07:29:36;;;;;;;4.17;3.50;;;;;;;22.57;66.90;96500.66;1687731;84;21059;-81
2022/08/05 07:32:01;;;;;;;5.17;2.95;;;;;;;22.62;65.60;96497.54;1689570;84;21340;-82
2022/08/05 07:34:27;;;;;;;4.20;3.12;;;;;;;22.68;65.67;96499.16;1686363;84;20945;-82
2022/08/05 07:36:53;;;;;;;3.98;3.33;;;;;;;22.76;65.56;96501.31;1689603;84;21039;-82
2022/08/05 07:39:19;;;;;;;4.25;3.20;;;;;;;22.84;65.56;96508.02;1688580;84;20999;-82
2022/08/05 07:41:44;;;;;;;3.92;3.62;;;;;;;22.90;65.10;96502.22;1685177;84;20979;-82
2022/08/05 07:44:10;;;;;;;3.62;3.22;;;;;;;22.99;64.83;96499.36;1693088;84;21300;-82
2022/08/05 07:46:36;;;;;;;4.30;3.60;;;;;;;23.05;66.15;96496.47;1688995;83;21027;-82
2022/08/05 07:49:02;;;;;;;3.98;3.58;;;;;;;23.08;66.04;96492.50;1695190;84;20988;-83
2022/08/05 07:51:28;;;;;;;4.00;3.70;;;;;;;23.11;66.04;96495.98;1686436;84;21418;-83
2022/08/05 07:53:53;;;;;;;3.77;3.05;;;;;;;23.13;65.68;96491.22;1688195;84;21039;-83
2022/08/05 07:56:21;;;;;;;4.35;3.67;;;;;;;23.17;65.48;96490.97;1692309;84;21509;-83
2022/08/05 07:58:47;;;;;;;3.92;3.45;;;;;;;23.22;65.10;96489.66;1688348;84;21119;-83
2022/08/05 08:01:12;;;;;;;3.40;3.10;;;;;;;23.25;64.27;96487.01;1686774;84;20992;-83
2022/08/05 08:03:38;;;;;;;3.90;3.22;;;;;;;23.31;64.76;96490.77;1688888;84;20996;-83
2022/08/05 08:06:04;;;;;;;4.55;3.62;;;;;;;23.36;65.34;96489.45;1694545;84;21019;-83
2022/08/05 08:08:30;;;;;;;4.70;3.33;;;;;;;23.44;64.48;96491.34;1698257;84;20979;-83
2022/08/05 08:10:56;;;;;;;4.40;4.00;;;;;;;23.54;63.98;96488.17;1699782;84;21337;-83
2022/08/05 08:13:21;;;;;;;3.90;3.60;;;;;;;23.61;64.69;96497.26;1697448;84;20990;-83
2022/08/05 08:15:47;;;;;;;4.30;3.90;;;;;;;23.67;64.62;96497.53;1702159;84;20981;-83
2022/08/05 08:18:13;;;;;;;4.10;3.70;;;;;;;23.71;64.28;96499.91;1698881;84;21373;-83
2022/08/05 08:20:39;;;;;;;3.75;3.45;;;;;;;23.80;64.10;96504.98;1701573;84;20940;-83
2022/08/05 08:23:06;;;;;;;6.67;4.15;;;;;;;23.89;64.60;96501.27;1690795;83;20971;-83
2022/08/05 08:25:32;;;;;;;4.92;3.40;;;;;;;24.01;63.08;96504.48;1697372;84;21031;-83
2022/08/05 08:27:58;;;;;;;3.37;3.10;;;;;;;24.17;61.96;96503.44;1701513;84;20956;-83
2022/08/05 08:30:24;;;;;;;4.10;3.75;;;;;;;24.33;62.57;96492.84;1686895;84;21008;-83
2022/08/05 08:32:50;;;;;;;4.03;3.62;;;;;;;24.50;61.54;96511.43;1689143;83;21419;-83
2022/08/05 08:35:16;;;;;;;3.40;3.10;;;;;;;24.69;61.37;96501.04;1698149;84;21058;-83
2022/08/05 08:37:41;;;;;;;3.62;3.33;;;;;;;24.84;62.07;96502.87;1689671;84;21090;-83
2022/08/05 08:40:08;;;;;;;4.55;3.60;;;;;;;24.93;62.15;96514.56;1699552;83;21023;-82
2022/08/05 08:42:34;;;;;;;3.30;3.00;;;;;;;25.01;62.43;96511.37;1700438;84;21006;-84
2022/08/05 08:45:00;;;;;;;3.25;3.05;;;;;;;25.13;58.65;96511.88;1691098;83;20944;-84
2022/08/05 08:47:27;;;;;;;4.08;3.33;;;;;;;25.33;58.89;96509.66;1698431;84;20990;-83
2022/08/05 08:49:56;;;;;;;2.80;2.60;;;;;;;25.48;60.44;96507.48;1696568;84;20992;-83
2022/08/05 08:52:30;;;;;;;3.65;3.35;;;;;;;25.55;59.87;96511.98;1698929;84;21022;-82
2022/08/05 08:54:56;;;;;;;3.77;3.47;;;;;;;25.63;59.99;96512.72;1691918;84;20972;-82
2022/08/05 08:57:22;;;;;;;3.47;3.15;;;;;;;25.66;60.38;96514.83;1690150;83;21427;-82
2022/08/05 08:59:49;;;;;;;3.80;3.37;;;;;;;25.76;58.85;96511.89;1686272;84;21012;-82
2022/08/05 09:02:14;;;;;;;3.67;3.27;;;;;;;25.88;60.40;96508.38;1663766;84;20980;-82
2022/08/05 09:04:40;;;;;;;3.65;3.35;;;;;;;25.97;58.03;96512.02;1684214;84;20980;-82
2022/08/05 09:07:07;;;;;;;4.50;3.40;;;;;;;26.06;59.31;96510.37;1688255;84;21366;-82
2022/08/05 09:09:34;;;;;;;2.95;2.75;;;;;;;26.08;59.78;96504.23;1689084;84;20976;-82
2022/08/05 09:12:01;;;;;;;3.67;3.37;;;;;;;26.10;60.37;96503.95;1689250;84;20968;-82
2022/08/05 09:14:27;;;;;;;3.80;3.42;;;;;;;26.08;59.72;96509.56;1686759;84;20979;-82
2022/08/05 09:16:53;;;;;;;4.70;3.05;;;;;;;26.04;58.84;96503.20;1695405;84;20967;-82
2022/08/05 09:19:19;;;;;;;3.55;3.25;;;;;;;26.11;57.54;96505.55;1688184;84;20999;-83
2022/08/05 09:21:44;;;;;;;3.77;3.08;;;;;;;26.13;57.23;96492.74;1688083;83;21058;-82
2022/08/05 09:24:12;;;;;;;2.95;2.75;;;;;;;26.23;57.70;96504.13;1686944;84;21047;-82
2022/08/05 09:26:38;;;;;;;4.20;3.50;;;;;;;26.26;57.54;96496.91;1687943;84;21748;-82
2022/08/05 09:29:06;;;;;;;5.15;3.47;;;;;;;26.34;57.89;96492.30;1684728;84;21003;-82
2022/08/05 09:31:32;;;;;;;4.65;3.58;;;;;;;26.38;57.44;96489.13;1666390;84;20976;-82
2022/08/05 09:34:02;;;;;;;3.98;3.40;;;;;;;26.40;58.33;96483.77;1686187;84;22463;-83
2022/08/05 09:36:42;;;;;;;3.90;3.47;;;;;;;26.47;56.27;96482.10;1684684;84;21035;-82
2022/08/05 09:39:12;;;;;;;3.75;3.40;;;;;;;26.60;56.19;96480.13;1690221;84;20995;-82
2022/08/05 09:42:00;;;;;;;3.85;3.50;;;;;;;26.76;54.51;96478.09;1686865;84;21011;-82
2022/08/05 09:44:41;;;;;;;4.78;3.42;;;;;;;26.86;52.56;96476.13;1689427;84;21062;-82
2022/08/05 09:47:20;;;;;;;3.58;3.27;;;;;;;26.98;51.95;96476.25;1691819;83;21079;-83
2022/08/05 09:49:54;;;;;;;3.62;3.33;;;;;;;27.08;51.52;96474.84;1685131;84;21460;-82
2022/08/05 09:52:31;;;;;;;3.52;3.22;;;;;;;27.13;53.52;96476.91;1688868;84;20995;-82
2022/08/05 09:55:07;;;;;;;3.33;3.12;;;;;;;27.18;51.67;96477.41;1691771;84;21014;-82
2022/08/05 09:57:39;;;;;;;3.58;3.27;;;;;;;27.24;55.49;96482.13;1696002;84;21066;-82
2022/08/05 10:00:15;;;;;;;3.70;3.40;;;;;;;27.26;54.85;96477.30;1696617;83;21429;-82
2022/08/05 10:02:43;;;;;;;4.17;3.45;;;;;;;27.29;51.80;96481.52;1696079;83;21004;-81
2022/08/05 10:05:26;;;;;;;4.28;3.50;;;;;;;27.36;53.76;96485.19;1700506;84;21011;-82
2022/08/05 10:07:58;;;;;;;4.53;4.17;;;;;;;27.38;52.05;96479.82;1687920;83;21003;-82
2022/08/05 10:10:45;;;;;;;4.17;3.65;;;;;;;27.41;53.61;96480.58;1686231;83;21034;-82
2022/08/05 10:13:10;;;;;;;3.47;3.17;;;;;;;27.41;52.68;96477.91;1691073;84;21307;-82
2022/08/05 10:15:38;;;;;;;4.40;4.00;;;;;;;27.46;53.02;96475.70;1688716;84;22347;-82
2022/08/05 10:18:21;;;;;;;4.60;3.37;;;;;;;27.51;51.93;96475.66;1688980;84;20987;-82
2022/08/05 10:20:50;;;;;;;4.80;3.58;;;;;;;27.60;51.63;96482.47;1688751;84;21107;-82
2022/08/05 10:23:34;;;;;;;3.75;3.25;;;;;;;27.77;50.33;96476.11;1688077;84;21373;-82
2022/08/05 10:26:04;;;;;;;3.92;3.62;;;;;;;27.89;51.91;96473.80;1652870;85;20999;-82
2022/08/05 10:28:30;;;;;;;3.52;3.22;;;;;;;27.93;53.21;96471.34;1631536;86;21368;-82
2022/08/05 10:30:57;;;;;;;4.55;3.55;;;;;;;27.90;53.57;96466.05;1640508;86;21020;-82
2022/08/05 10:33:26;;;;;;;4.08;3.70;;;;;;;27.88;54.34;96466.88;1663423;85;20980;-82
2022/08/05 10:35:52;;;;;;;4.12;3.80;;;;;;;27.91;54.22;96463.63;1665242;85;21074;-83
2022/08/05 10:38:23;;;;;;;3.75;3.45;;;;;;;27.94;52.88;96465.70;1663690;85;21104;-82
2022/08/05 10:40:55;;;;;;;4.30;3.45;;;;;;;28.01;52.23;96468.82;1654779;85;21045;-83
2022/08/05 10:43:57;;;;;;;3.87;3.50;;;;;;;28.10;51.16;96460.92;1690756;84;20961;-83
2022/08/05 10:46:22;;;;;;;4.05;3.40;;;;;;;28.16;51.74;96464.33;1692112;84;21457;-82
2022/08/05 10:48:49;;;;;;;3.98;3.67;;;;;;;28.23;51.00;96464.73;1692256;84;20967;-83
2022/08/05 10:51:18;;;;;;;4.92;3.70;;;;;;;28.32;50.34;96459.02;1673783;84;21344;-83
2022/08/05 10:54:01;;;;;;;4.00;3.65;;;;;;;28.39;49.43;96458.08;1688622;84;21039;-83
2022/08/05 10:56:29;;;;;;;4.47;3.47;;;;;;;28.47;49.09;96454.72;1692888;83;21031;-83
2022/08/05 10:59:03;;;;;;;5.37;4.25;;;;;;;28.55;51.39;96457.27;1670600;84;21425;-83
2022/08/05 11:01:37;;;;;;;4.53;3.62;;;;;;;28.62;49.66;96454.45;1694413;83;20996;-83
2022/08/05 11:04:13;;;;;;;3.98;3.58;;;;;;;28.69;48.76;96449.52;1663837;84;20990;-83
2022/08/05 11:07:05;;;;;;;3.42;3.02;;;;;;;28.78;49.30;96451.49;1687974;83;21667;-84
2022/08/05 11:09:50;;;;;;;4.70;3.25;;;;;;;28.86;47.16;96451.64;1691606;84;21034;-84
2022/08/05 11:12:39;;;;;;;4.30;3.90;;;;;;;28.91;45.98;96447.52;1692916;83;20988;-82
2022/08/05 11:15:34;;;;;;;4.15;3.55;;;;;;;28.99;47.27;96450.86;1688635;83;21479;-83
2022/08/05 11:18:29;;;;;;;3.45;3.15;;;;;;;29.06;47.58;96449.66;1664237;84;20987;-82
2022/08/05 11:20:54;;;;;;;3.47;2.87;;;;;;;29.12;45.88;96455.94;1662159;84;21038;-82
2022/08/05 11:23:52;;;;;;;3.45;3.15;;;;;;;29.22;47.59;96451.72;1678719;83;21067;-82
2022/08/05 11:26:21;;;;;;;3.72;3.33;;;;;;;29.33;46.88;96452.86;1690195;83;20957;-84
2022/08/05 11:28:49;;;;;;;3.58;3.27;;;;;;;29.43;46.25;96451.29;1692878;84;20932;-84
2022/08/05 11:31:18;;;;;;;3.67;3.37;;;;;;;29.50;46.80;96451.17;1687257;83;21032;-84
2022/08/05 11:33:54;;;;;;;3.77;3.37;;;;;;;29.59;46.88;96452.57;1686832;83;21337;-84
2022/08/05 11:36:46;;;;;;;3.60;3.30;;;;;;;29.59;46.90;96447.22;1689980;83;20955;-84
2022/08/05 11:39:15;;;;;;;6.45;5.20;;;;;;;29.46;45.85;96420.75;1668956;84;21319;-83
2022/08/05 11:41:41;;;;;;;6.22;5.72;;;;;;;29.66;45.70;96444.94;1692467;83;20999;-83
2022/08/05 11:44:11;;;;;;;7.30;6.70;;;;;;;29.72;46.63;96439.70;1691517;83;21366;-83